Time;durP1;ratioP1;P1;durP2;ratioP2;P2;SDS_P1;SDS_P2;PMS_P1;PMS_P2;Temp;Humidity;BMP_temperature;BMP_pressure;BME280_temperature;BME280_humidity;BME280_pressure;Samples;Min_cycle;Max_cycle;Signal;HPM_P1;HPM_P2
2022/03/28 00:00:00;;;;;;;15.88;10.13;;;;;;;4.94;61.38;96712.69;6369792;22;20002;-58
2022/03/28 00:02:25;;;;;;;16.40;10.05;;;;;;;4.93;60.78;96705.78;6369740;22;20006;-60
2022/03/28 00:04:51;;;;;;;14.95;8.77;;;;;;;4.99;60.80;96702.84;6369829;22;20069;-58
2022/03/28 00:07:16;;;;;;;10.75;8.90;;;;;;;5.00;60.65;96701.91;6369879;22;20006;-58
2022/03/28 00:09:41;;;;;;;17.02;9.52;;;;;;;5.00;60.60;96704.53;6369570;22;20013;-59
2022/03/28 00:12:08;;;;;;;9.30;8.15;;;;;;;4.96;61.00;96699.53;6369898;22;20071;-59
2022/03/28 00:14:33;;;;;;;13.52;9.32;;;;;;;4.90;61.10;96694.66;6369911;22;20071;-59
2022/03/28 00:16:59;;;;;;;12.85;8.95;;;;;;;4.92;61.34;96690.19;6369320;22;20426;-59
2022/03/28 00:19:24;;;;;;;11.52;8.88;;;;;;;4.91;61.87;96693.72;6368685;22;19998;-59
2022/03/28 00:21:50;;;;;;;9.88;7.95;;;;;;;4.85;62.03;96693.16;6369326;22;20346;-59
2022/03/28 00:24:15;;;;;;;9.48;8.48;;;;;;;4.84;62.83;96688.00;6368970;22;20030;-60
2022/03/28 00:26:41;;;;;;;10.63;8.05;;;;;;;4.79;62.49;96690.00;6369638;22;20445;-58
2022/03/28 00:29:06;;;;;;;9.13;8.23;;;;;;;4.76;63.75;96683.22;6369268;22;20434;-57
2022/03/28 00:31:31;;;;;;;14.45;8.95;;;;;;;4.75;62.94;96681.50;6369587;22;20481;-59
2022/03/28 00:33:57;;;;;;;15.10;8.23;;;;;;;4.77;62.52;96677.06;6369206;22;20068;-59
2022/03/28 00:36:22;;;;;;;9.38;8.48;;;;;;;4.76;62.95;96675.38;6369343;22;19998;-59
2022/03/28 00:38:49;;;;;;;9.88;7.05;;;;;;;4.70;63.41;96678.28;6369315;22;19999;-58
2022/03/28 00:41:15;;;;;;;9.13;7.20;;;;;;;4.69;62.24;96674.84;6369506;22;20002;-59
2022/03/28 00:43:45;;;;;;;8.38;7.43;;;;;;;4.79;61.47;96677.81;6368920;22;20036;-57
2022/03/28 00:46:10;;;;;;;8.25;7.25;;;;;;;4.81;62.27;96665.53;6369223;22;20077;-58
2022/03/28 00:48:38;;;;;;;8.60;7.68;;;;;;;4.63;62.33;96669.13;6369024;22;20107;-58
2022/03/28 00:51:04;;;;;;;8.10;7.30;;;;;;;4.63;62.46;96659.50;6341276;22;20015;-56
2022/03/28 00:53:29;;;;;;;9.00;7.65;;;;;;;4.64;61.92;96648.19;6369205;22;19998;-58
2022/03/28 00:55:55;;;;;;;8.70;7.80;;;;;;;4.65;62.18;96652.47;6368994;22;20047;-57
2022/03/28 00:58:21;;;;;;;9.43;7.60;;;;;;;4.70;61.68;96655.66;6369384;22;20002;-59
2022/03/28 01:00:47;;;;;;;7.80;7.10;;;;;;;4.67;63.16;96652.38;6369155;22;20372;-57
2022/03/28 01:03:12;;;;;;;8.23;7.43;;;;;;;4.62;62.78;96649.19;6369092;22;20037;-57
2022/03/28 01:05:37;;;;;;;12.77;9.43;;;;;;;4.55;63.32;96654.72;6368930;22;20093;-58
2022/03/28 01:08:03;;;;;;;8.43;7.28;;;;;;;4.48;63.37;96639.47;6368870;22;20002;-57
2022/03/28 01:10:30;;;;;;;12.00;8.80;;;;;;;4.44;64.39;96649.22;6368780;22;20078;-58
2022/03/28 01:12:57;;;;;;;10.55;8.65;;;;;;;4.45;63.63;96643.06;6369023;22;20010;-59
2022/03/28 01:15:22;;;;;;;9.90;8.90;;;;;;;4.48;63.66;96642.91;6368934;22;19999;-58
2022/03/28 01:18:06;;;;;;;12.43;8.65;;;;;;;4.48;64.17;96642.91;6368939;22;20003;-57
2022/03/28 01:20:35;;;;;;;12.23;8.23;;;;;;;4.48;63.16;96635.09;6369045;22;20011;-57
2022/03/28 01:23:01;;;;;;;9.15;7.47;;;;;;;4.47;63.77;96638.63;6368943;22;20010;-58
2022/03/28 01:25:29;;;;;;;9.52;7.15;;;;;;;4.38;63.43;96639.94;6368833;22;19998;-59
2022/03/28 01:27:55;;;;;;;9.15;7.80;;;;;;;4.37;63.01;96637.44;6368569;22;20003;-58
2022/03/28 01:30:22;;;;;;;9.60;7.68;;;;;;;4.33;64.46;96636.75;6368597;22;20016;-58
2022/03/28 01:32:54;;;;;;;10.55;9.23;;;;;;;4.34;63.66;96635.81;6368774;22;20002;-58
2022/03/28 01:35:34;;;;;;;10.13;8.52;;;;;;;4.30;63.78;96634.31;6368534;22;20081;-58
2022/03/28 01:38:00;;;;;;;13.93;9.05;;;;;;;4.29;63.96;96632.63;6368443;22;19994;-58
2022/03/28 01:40:27;;;;;;;9.93;8.07;;;;;;;4.28;63.86;96630.94;6368937;22;20449;-57
2022/03/28 01:42:52;;;;;;;10.13;8.52;;;;;;;4.32;63.47;96622.03;6368636;22;20009;-58
2022/03/28 01:45:18;;;;;;;8.63;7.72;;;;;;;4.36;64.32;96622.72;6368934;22;20323;-58
2022/03/28 01:47:45;;;;;;;10.95;8.25;;;;;;;4.28;64.33;96626.53;6340328;22;20022;-55
2022/03/28 01:50:10;;;;;;;11.95;7.97;;;;;;;4.25;63.85;96621.50;6368707;22;20002;-57
2022/03/28 01:52:36;;;;;;;11.02;8.50;;;;;;;4.25;63.95;96624.09;6368711;22;20006;-57
2022/03/28 01:55:02;;;;;;;9.10;7.72;;;;;;;4.21;64.00;96625.19;6368534;22;20002;-56
2022/03/28 01:57:27;;;;;;;9.15;7.95;;;;;;;4.20;63.19;96617.44;6368487;22;19998;-57
2022/03/28 01:59:53;;;;;;;9.93;8.18;;;;;;;4.22;63.96;96619.06;6366122;22;20369;-58
2022/03/28 02:02:19;;;;;;;9.02;7.95;;;;;;;4.16;64.67;96625.41;6367428;22;20051;-58
2022/03/28 02:04:44;;;;;;;18.17;8.50;;;;;;;4.11;63.96;96624.00;6367981;22;20444;-58
2022/03/28 02:07:09;;;;;;;12.93;9.13;;;;;;;4.10;64.84;96617.09;6368303;22;20002;-56
2022/03/28 02:09:35;;;;;;;12.77;8.52;;;;;;;4.08;63.70;96618.91;6368540;22;20081;-58
2022/03/28 02:12:00;;;;;;;10.38;7.93;;;;;;;4.08;63.38;96611.09;6368194;22;20427;-57
2022/03/28 02:14:25;;;;;;;9.43;7.70;;;;;;;4.14;63.21;96616.00;6368643;22;20037;-57
2022/03/28 02:16:51;;;;;;;10.02;8.98;;;;;;;4.16;64.22;96606.34;6368355;22;20034;-57
2022/03/28 02:19:16;;;;;;;13.32;9.40;;;;;;;4.09;64.34;96618.84;6368305;22;20514;-57
2022/03/28 02:21:42;;;;;;;10.35;7.88;;;;;;;4.03;63.76;96613.97;6368340;22;20022;-58
2022/03/28 02:24:07;;;;;;;10.48;8.68;;;;;;;4.02;64.04;96612.28;6367448;22;20461;-58
2022/03/28 02:26:33;;;;;;;9.98;8.80;;;;;;;3.98;64.35;96606.38;6340257;22;20006;-57
2022/03/28 02:28:58;;;;;;;9.32;8.23;;;;;;;3.93;64.42;96605.78;6368215;22;20010;-57
2022/03/28 02:31:24;;;;;;;12.48;9.00;;;;;;;3.90;65.04;96603.31;6368413;22;20002;-58
2022/03/28 02:33:49;;;;;;;11.25;8.48;;;;;;;3.85;65.46;96605.28;6368081;22;20002;-58
2022/03/28 02:36:14;;;;;;;10.63;8.27;;;;;;;3.83;65.29;96601.94;6340344;22;20067;-57
2022/03/28 02:38:40;;;;;;;13.25;9.07;;;;;;;3.78;65.71;96601.34;6368246;22;20003;-58
2022/03/28 02:41:05;;;;;;;17.95;8.85;;;;;;;3.82;64.88;96597.66;6367906;22;19998;-57
2022/03/28 02:43:30;;;;;;;10.25;8.18;;;;;;;3.78;65.49;96604.78;6367809;22;20002;-57
2022/03/28 02:45:56;;;;;;;9.93;8.10;;;;;;;3.70;65.35;96599.97;6368085;22;20002;-57
2022/03/28 02:48:21;;;;;;;9.65;8.50;;;;;;;3.68;66.24;96598.34;6368138;22;20063;-57
2022/03/28 02:50:48;;;;;;;10.48;7.60;;;;;;;3.64;66.28;96592.44;6367713;22;20008;-58
2022/03/28 02:53:14;;;;;;;9.60;8.60;;;;;;;3.67;65.81;96601.88;6368213;22;20058;-58
2022/03/28 02:55:39;;;;;;;8.57;7.68;;;;;;;3.65;66.06;96598.50;6368055;22;20005;-57
2022/03/28 02:58:05;;;;;;;9.18;7.40;;;;;;;3.65;65.18;96598.50;6368041;22;20003;-57
2022/03/28 03:00:30;;;;;;;9.73;8.70;;;;;;;3.66;64.88;96595.84;6368238;22;20009;-57
2022/03/28 03:02:56;;;;;;;10.15;8.10;;;;;;;3.67;65.74;96597.53;6367423;22;20592;-58
2022/03/28 03:05:23;;;;;;;11.05;8.70;;;;;;;3.60;66.12;96590.09;6368196;22;20005;-58
2022/03/28 03:07:49;;;;;;;11.43;8.38;;;;;;;3.55;65.38;96593.75;6368021;22;20018;-58
2022/03/28 03:10:15;;;;;;;10.60;8.55;;;;;;;3.55;65.01;96598.97;6367745;22;20013;-58
2022/03/28 03:12:40;;;;;;;8.68;7.78;;;;;;;3.53;65.37;96590.38;6367445;22;19994;-58
2022/03/28 03:15:06;;;;;;;9.18;8.18;;;;;;;3.51;65.66;96593.97;6367883;22;20006;-58
2022/03/28 03:17:31;;;;;;;11.93;8.38;;;;;;;3.50;66.27;96587.09;6367800;22;20033;-58
2022/03/28 03:19:57;;;;;;;10.82;7.95;;;;;;;3.47;66.23;96582.88;6367874;22;19994;-58
2022/03/28 03:22:22;;;;;;;10.30;8.07;;;;;;;3.46;66.68;96585.56;6367652;22;20006;-58
2022/03/28 03:24:48;;;;;;;8.20;7.40;;;;;;;3.43;67.02;96581.34;6367829;22;20400;-58
2022/03/28 03:27:13;;;;;;;10.30;7.15;;;;;;;3.37;66.67;96579.88;6367803;22;20006;-57
2022/03/28 03:29:40;;;;;;;14.70;7.93;;;;;;;3.33;66.80;96577.53;6368084;22;19998;-56
2022/03/28 03:32:06;;;;;;;8.70;7.90;;;;;;;3.32;66.75;96579.28;6367980;22;20029;-57
2022/03/28 03:34:33;;;;;;;9.65;8.68;;;;;;;3.30;67.31;96576.72;6367851;22;20006;-57
2022/03/28 03:36:58;;;;;;;8.48;7.68;;;;;;;3.27;67.66;96579.47;6367928;22;20029;-58
2022/03/28 03:39:25;;;;;;;11.85;8.43;;;;;;;3.30;67.01;96581.94;6367922;22;20053;-57
2022/03/28 03:41:54;;;;;;;7.95;7.22;;;;;;;3.32;66.93;96581.03;6367836;22;20055;-57
2022/03/28 03:44:20;;;;;;;9.23;8.13;;;;;;;3.33;67.17;96580.13;6367851;22;20045;-58
2022/03/28 03:46:46;;;;;;;10.93;7.15;;;;;;;3.28;67.55;96580.34;6367559;22;20342;-56
2022/03/28 03:49:12;;;;;;;8.40;7.60;;;;;;;3.26;67.27;96576.97;6367495;22;20021;-57
2022/03/28 03:51:38;;;;;;;9.05;7.38;;;;;;;3.25;66.91;96588.31;6368012;22;19998;-56
2022/03/28 03:54:03;;;;;;;8.23;7.43;;;;;;;3.27;67.59;96584.69;6368960;22;20051;-58
2022/03/28 03:56:29;;;;;;;7.65;6.90;;;;;;;3.27;67.33;96589.91;6369598;22;20009;-58
2022/03/28 03:58:55;;;;;;;12.27;8.73;;;;;;;3.26;67.78;96590.81;6369903;22;19999;-57
2022/03/28 04:01:21;;;;;;;13.18;7.68;;;;;;;3.24;67.59;96589.22;6369418;22;19998;-57
2022/03/28 04:03:47;;;;;;;9.02;7.65;;;;;;;3.24;66.92;96597.84;6369842;22;20089;-58
2022/03/28 04:06:12;;;;;;;8.35;7.55;;;;;;;3.25;67.29;96596.13;6369416;22;19998;-57
2022/03/28 04:08:38;;;;;;;9.00;7.85;;;;;;;3.19;67.57;96599.00;6369467;22;20018;-57
2022/03/28 04:11:04;;;;;;;9.98;7.65;;;;;;;3.14;67.61;96601.84;6369200;22;20006;-56
2022/03/28 04:13:30;;;;;;;9.48;8.48;;;;;;;3.05;68.02;96599.66;6369683;22;20047;-57
2022/03/28 04:15:55;;;;;;;10.63;8.68;;;;;;;3.00;67.90;96598.13;6369456;22;20003;-58
2022/03/28 04:18:20;;;;;;;13.23;8.43;;;;;;;3.03;66.64;96597.16;6369581;22;20014;-58
2022/03/28 04:20:46;;;;;;;14.07;9.30;;;;;;;3.05;68.25;96597.06;6369152;22;20002;-57
2022/03/28 04:23:11;;;;;;;9.75;8.25;;;;;;;2.96;68.13;96601.78;6369409;22;20009;-57
2022/03/28 04:25:37;;;;;;;9.85;8.27;;;;;;;2.94;68.66;96597.56;6368383;22;20342;-58
2022/03/28 04:28:06;;;;;;;9.57;8.57;;;;;;;2.90;68.99;96604.69;6369196;22;20006;-58
2022/03/28 04:30:32;;;;;;;10.35;9.27;;;;;;;2.89;69.06;96596.94;6369505;22;20002;-56
2022/03/28 04:32:57;;;;;;;9.35;8.25;;;;;;;2.90;69.21;96596.03;6369374;22;20002;-57
2022/03/28 04:35:23;;;;;;;9.27;8.32;;;;;;;2.88;68.28;96598.72;6369352;22;20026;-58
2022/03/28 04:37:49;;;;;;;10.57;8.45;;;;;;;2.84;68.68;96603.22;6368653;22;20494;-55
2022/03/28 04:40:17;;;;;;;10.70;9.60;;;;;;;2.81;68.94;96600.75;6368875;22;20030;-58
2022/03/28 04:42:43;;;;;;;16.60;9.27;;;;;;;2.83;69.50;96593.72;6369139;22;19995;-57
2022/03/28 04:45:09;;;;;;;12.27;10.25;;;;;;;2.81;68.47;96603.34;6368869;22;20009;-57
2022/03/28 04:47:35;;;;;;;15.80;9.55;;;;;;;2.84;68.15;96603.22;6369066;22;20089;-54
2022/03/28 04:50:01;;;;;;;12.73;10.38;;;;;;;2.86;68.67;96606.56;6369264;22;20355;-55
2022/03/28 04:52:26;;;;;;;11.02;9.88;;;;;;;2.83;68.39;96606.72;6369131;22;20002;-57
2022/03/28 04:54:53;;;;;;;11.35;9.90;;;;;;;2.81;69.13;96607.69;6367797;22;20420;-57
2022/03/28 04:57:18;;;;;;;13.32;10.05;;;;;;;2.78;69.72;96605.25;6369260;22;20010;-57
2022/03/28 04:59:44;;;;;;;13.30;10.48;;;;;;;2.69;69.04;96611.72;6368849;22;20025;-56
2022/03/28 05:02:09;;;;;;;14.20;10.18;;;;;;;2.66;69.87;96604.06;6368620;22;20041;-57
2022/03/28 05:04:35;;;;;;;12.70;9.80;;;;;;;2.57;71.60;96611.38;6368817;22;20009;-58
2022/03/28 05:07:00;;;;;;;11.57;9.15;;;;;;;2.56;70.76;96614.03;6368386;22;20013;-56
2022/03/28 05:09:25;;;;;;;10.85;9.68;;;;;;;2.56;70.29;96617.50;6368853;22;20014;-56
2022/03/28 05:11:51;;;;;;;12.93;9.35;;;;;;;2.52;70.14;96613.31;6368995;22;19994;-55
2022/03/28 05:14:18;;;;;;;14.25;9.85;;;;;;;2.51;69.58;96624.63;6368079;22;20351;-57
2022/03/28 05:16:44;;;;;;;12.30;9.77;;;;;;;2.51;69.55;96621.22;6368964;22;19998;-58
2022/03/28 05:19:09;;;;;;;13.38;10.18;;;;;;;2.47;71.09;96625.69;6368713;22;20006;-56
2022/03/28 05:21:34;;;;;;;14.45;10.00;;;;;;;2.47;70.12;96622.25;6368059;22;19998;-55
2022/03/28 05:24:00;;;;;;;10.27;9.20;;;;;;;2.48;70.15;96629.97;6367893;22;20494;-56
2022/03/28 05:26:26;;;;;;;18.83;8.90;;;;;;;2.47;69.67;96636.09;6367968;22;19998;-57
2022/03/28 05:28:52;;;;;;;10.38;9.38;;;;;;;2.48;69.69;96631.75;6368025;22;20079;-56
2022/03/28 05:31:17;;;;;;;13.45;10.68;;;;;;;2.49;69.89;96631.66;6367700;22;20430;-57
2022/03/28 05:33:42;;;;;;;16.73;10.50;;;;;;;2.51;70.35;96632.44;6368751;22;20003;-57
2022/03/28 05:36:08;;;;;;;11.50;9.50;;;;;;;2.55;70.13;96630.53;6368789;22;20014;-57
2022/03/28 05:38:34;;;;;;;14.23;9.95;;;;;;;2.63;69.75;96620.63;6368040;22;20022;-57
2022/03/28 05:40:59;;;;;;;17.90;9.73;;;;;;;2.66;69.68;96619.66;6367545;22;20054;-55
2022/03/28 05:43:25;;;;;;;18.05;10.20;;;;;;;2.73;69.58;96626.25;6368280;22;20003;-59
2022/03/28 05:45:54;;;;;;;24.92;10.93;;;;;;;2.85;68.33;96619.63;6366804;22;20438;-55
2022/03/28 05:48:20;;;;;;;21.50;10.82;;;;;;;2.93;68.22;96625.34;6367183;22;20079;-58
2022/03/28 05:50:46;;;;;;;16.77;9.98;;;;;;;3.00;69.44;96624.13;6368262;22;20010;-61
2022/03/28 05:53:13;;;;;;;11.90;9.55;;;;;;;3.04;69.14;96627.44;6368475;22;19999;-60
2022/03/28 05:55:42;;;;;;;11.98;10.77;;;;;;;3.09;68.76;96625.47;6368682;22;20017;-60
2022/03/28 05:58:08;;;;;;;18.65;10.80;;;;;;;3.10;69.31;96629.75;6368662;22;20010;-60
2022/03/28 06:00:35;;;;;;;10.90;9.50;;;;;;;3.19;68.94;96617.22;6368530;22;20002;-58
2022/03/28 06:03:01;;;;;;;13.93;10.00;;;;;;;3.27;68.59;96622.91;6368416;22;20081;-59
2022/03/28 06:05:26;;;;;;;13.30;9.27;;;;;;;3.35;67.26;96618.16;6367777;22;20030;-59
2022/03/28 06:07:51;;;;;;;11.38;9.00;;;;;;;3.49;66.96;96624.47;6368097;22;20009;-60
2022/03/28 06:10:17;;;;;;;11.60;9.38;;;;;;;3.57;66.96;96612.75;6367825;22;20006;-58
2022/03/28 06:12:43;;;;;;;13.43;9.52;;;;;;;3.63;67.71;96623.78;6367962;22;20002;-58
2022/03/28 06:15:09;;;;;;;11.95;9.18;;;;;;;3.65;67.88;96614.13;6368243;22;20062;-60
2022/03/28 06:17:34;;;;;;;12.38;9.85;;;;;;;3.70;68.05;96615.59;6368326;22;20029;-59
2022/03/28 06:20:03;;;;;;;16.58;9.32;;;;;;;3.75;67.36;96609.31;6368480;22;20434;-60
2022/03/28 06:22:28;;;;;;;10.20;8.43;;;;;;;3.79;67.42;96610.81;6368242;22;20010;-60
2022/03/28 06:24:53;;;;;;;11.23;8.55;;;;;;;3.85;66.85;96621.78;6367414;22;19998;-57
2022/03/28 06:27:23;;;;;;;11.75;9.30;;;;;;;3.95;66.37;96611.75;6367987;22;20041;-60
2022/03/28 06:29:50;;;;;;;18.02;9.30;;;;;;;4.06;65.79;96619.00;6368401;22;20009;-58
2022/03/28 06:32:16;;;;;;;12.48;9.95;;;;;;;4.18;66.04;96617.53;6367859;22;20036;-57
2022/03/28 06:34:41;;;;;;;12.90;9.18;;;;;;;4.25;66.95;96623.28;6367626;22;20002;-57
2022/03/28 06:37:06;;;;;;;14.27;9.38;;;;;;;4.25;66.06;96629.31;6368207;22;20032;-57
2022/03/28 06:39:34;;;;;;;12.10;9.23;;;;;;;4.17;66.87;96628.88;6368081;22;20497;-57
2022/03/28 06:41:59;;;;;;;10.35;8.95;;;;;;;4.22;65.56;96629.47;6367154;22;19998;-52
2022/03/28 06:44:24;;;;;;;12.50;10.05;;;;;;;4.30;65.61;96626.47;6366651;22;20056;-60
2022/03/28 06:46:50;;;;;;;9.80;8.88;;;;;;;4.37;65.40;96632.22;6367069;22;20007;-60
2022/03/28 06:49:16;;;;;;;12.48;9.93;;;;;;;4.41;66.58;96634.56;6367782;22;20017;-58
2022/03/28 06:51:41;;;;;;;11.48;9.20;;;;;;;4.46;67.56;96633.50;6367876;22;19999;-61
2022/03/28 06:54:08;;;;;;;11.80;9.68;;;;;;;4.46;66.58;96633.50;6367037;22;20081;-60
2022/03/28 06:56:35;;;;;;;18.35;10.88;;;;;;;4.47;66.19;96636.00;6367773;22;20499;-60
2022/03/28 06:59:00;;;;;;;17.67;10.63;;;;;;;4.39;67.48;96639.03;6367919;22;20002;-60
2022/03/28 07:01:26;;;;;;;17.23;12.52;;;;;;;4.44;66.67;96638.78;6367966;22;20077;-60
2022/03/28 07:03:51;;;;;;;14.73;12.20;;;;;;;4.55;66.07;96630.41;6367480;22;20002;-58
2022/03/28 07:06:17;;;;;;;43.55;29.92;;;;;;;4.64;66.45;96631.69;6367057;22;20005;-60
2022/03/28 07:08:42;;;;;;;19.08;14.73;;;;;;;4.77;65.92;96632.72;6367807;22;20006;-61
2022/03/28 07:11:07;;;;;;;17.30;12.50;;;;;;;5.15;65.70;96629.75;6367401;22;20014;-60
2022/03/28 07:13:33;;;;;;;15.55;13.50;;;;;;;6.06;65.60;96624.66;6367756;22;20009;-60
2022/03/28 07:15:58;;;;;;;12.52;10.82;;;;;;;6.99;61.83;96619.88;6367678;22;20051;-60
2022/03/28 07:18:24;;;;;;;12.75;10.18;;;;;;;8.00;58.56;96605.53;6368001;22;20013;-60
2022/03/28 07:20:52;;;;;;;10.95;9.43;;;;;;;8.79;54.60;96601.94;6367889;22;20009;-60
2022/03/28 07:23:19;;;;;;;9.40;8.40;;;;;;;9.31;51.81;96594.75;6367213;22;20002;-60
2022/03/28 07:25:46;;;;;;;15.93;9.48;;;;;;;9.82;50.51;96592.78;6367361;22;20009;-61
2022/03/28 07:28:13;;;;;;;12.20;8.82;;;;;;;10.22;46.37;96591.53;6368474;22;20006;-60
2022/03/28 07:30:40;;;;;;;11.20;9.65;;;;;;;10.52;45.44;96587.53;6370046;22;20006;-60
2022/03/28 07:33:06;;;;;;;10.18;8.77;;;;;;;11.10;45.50;96583.88;6369697;22;20358;-61
2022/03/28 07:35:35;;;;;;;13.88;8.98;;;;;;;11.30;43.25;96576.16;6369906;22;20009;-61
2022/03/28 07:38:01;;;;;;;9.27;8.00;;;;;;;11.39;42.90;96585.13;6370083;22;20082;-60
2022/03/28 07:40:27;;;;;;;7.90;7.20;;;;;;;11.22;41.33;96579.41;6369285;22;19999;-60
2022/03/28 07:42:53;;;;;;;9.40;8.50;;;;;;;11.43;41.02;96582.13;6370104;22;20071;-60
2022/03/28 07:45:19;;;;;;;9.27;8.02;;;;;;;11.95;39.98;96576.13;6369913;22;20067;-60
2022/03/28 07:47:45;;;;;;;10.30;8.90;;;;;;;12.20;39.47;96579.34;6369428;22;20019;-60
2022/03/28 07:50:11;;;;;;;11.25;10.13;;;;;;;12.71;39.46;96574.16;6369437;22;20009;-60
2022/03/28 07:52:38;;;;;;;9.43;7.95;;;;;;;12.80;36.04;96577.78;6369691;22;19995;-60
2022/03/28 07:55:05;;;;;;;13.38;7.93;;;;;;;13.01;37.77;96580.38;6369655;22;20013;-60
2022/03/28 07:57:30;;;;;;;12.55;8.68;;;;;;;13.54;37.24;96575.75;6370095;22;20073;-60
2022/03/28 07:59:56;;;;;;;10.18;8.55;;;;;;;13.88;36.47;96562.09;6369731;22;20432;-60
2022/03/28 08:02:23;;;;;;;8.75;7.72;;;;;;;14.17;34.60;96563.84;6369007;22;20073;-60
2022/03/28 08:04:48;;;;;;;8.85;7.95;;;;;;;14.59;34.63;96557.31;6341601;22;20032;-60
2022/03/28 08:07:14;;;;;;;8.63;7.80;;;;;;;14.94;33.02;96560.25;6369029;22;20042;-60
2022/03/28 08:09:40;;;;;;;10.90;8.88;;;;;;;14.79;31.33;96551.94;6369618;22;20029;-61
2022/03/28 08:12:06;;;;;;;12.52;8.18;;;;;;;14.97;30.06;96550.16;6369695;22;20002;-59
2022/03/28 08:14:32;;;;;;;13.65;8.45;;;;;;;15.25;31.88;96544.84;6369472;22;20002;-60
2022/03/28 08:16:58;;;;;;;9.68;7.60;;;;;;;15.41;29.75;96540.66;6369371;22;20490;-60
2022/03/28 08:19:24;;;;;;;12.13;9.43;;;;;;;15.15;31.71;96539.59;6369570;22;19998;-60
2022/03/28 08:21:50;;;;;;;11.57;8.82;;;;;;;14.75;28.55;96543.47;6369592;22;20002;-61
2022/03/28 08:24:15;;;;;;;10.48;8.57;;;;;;;14.97;28.95;96550.16;6369387;22;20430;-60
2022/03/28 08:26:41;;;;;;;10.23;9.15;;;;;;;15.10;30.37;96547.16;6368577;22;20009;-61
2022/03/28 08:29:06;;;;;;;10.95;8.73;;;;;;;15.30;30.42;96539.06;6369330;22;20339;-60
2022/03/28 08:31:32;;;;;;;10.45;9.27;;;;;;;15.32;30.08;96537.09;6369341;22;20034;-61
2022/03/28 08:33:58;;;;;;;11.90;9.10;;;;;;;15.28;30.07;96530.41;6369405;22;20029;-61
2022/03/28 08:36:24;;;;;;;10.25;9.15;;;;;;;15.44;28.96;96527.09;6368537;22;20065;-61
2022/03/28 08:38:49;;;;;;;11.52;9.02;;;;;;;15.67;29.15;96523.97;6368756;22;20126;-60
2022/03/28 08:41:16;;;;;;;9.93;8.93;;;;;;;15.67;27.54;96523.97;6368789;22;20034;-61
2022/03/28 08:43:42;;;;;;;9.60;8.55;;;;;;;16.25;27.35;96527.91;6368649;22;20003;-60
2022/03/28 08:46:09;;;;;;;10.07;8.88;;;;;;;15.97;26.46;96525.38;6368874;22;20066;-60
2022/03/28 08:48:38;;;;;;;10.13;9.13;;;;;;;15.75;27.28;96524.84;6368679;22;20018;-61
2022/03/28 08:51:04;;;;;;;9.88;8.63;;;;;;;16.06;27.38;96518.31;6369348;22;20191;-61
2022/03/28 08:53:29;;;;;;;10.88;9.50;;;;;;;16.10;26.93;96521.50;6369177;22;20464;-61
2022/03/28 08:55:55;;;;;;;11.85;9.30;;;;;;;16.42;24.14;96512.03;6369167;22;20013;-60
2022/03/28 08:58:20;;;;;;;10.88;8.90;;;;;;;16.59;22.79;96513.78;6368944;22;20077;-60
2022/03/28 09:00:46;;;;;;;9.13;8.27;;;;;;;16.45;23.69;96515.22;6369293;22;20008;-61
2022/03/28 09:03:11;;;;;;;14.63;8.45;;;;;;;16.70;23.19;96514.50;6369046;22;20022;-60
2022/03/28 09:05:38;;;;;;;9.65;8.60;;;;;;;16.41;23.06;96518.34;6369031;22;20059;-60
2022/03/28 09:08:06;;;;;;;9.50;8.50;;;;;;;16.42;24.87;96512.03;6368987;22;20006;-60
2022/03/28 09:10:32;;;;;;;9.98;8.13;;;;;;;16.55;24.24;96515.09;6369065;22;20074;-61
2022/03/28 09:13:05;;;;;;;11.95;8.50;;;;;;;16.64;22.10;96507.13;6368748;22;20005;-61
2022/03/28 09:15:42;;;;;;;9.68;8.73;;;;;;;16.98;22.28;96504.47;6367612;22;19999;-60
2022/03/28 09:18:08;;;;;;;11.60;8.73;;;;;;;16.32;23.94;96504.16;6368657;22;20442;-60
2022/03/28 09:20:36;;;;;;;13.15;7.93;;;;;;;16.41;23.98;96505.06;6368450;22;20002;-59
2022/03/28 09:23:40;;;;;;;10.90;9.50;;;;;;;17.36;21.71;96501.38;6368737;22;20001;-60
2022/03/28 09:26:20;;;;;;;10.35;8.40;;;;;;;17.38;20.89;96493.22;6369268;22;20071;-60
2022/03/28 09:28:46;;;;;;;10.07;8.75;;;;;;;17.42;22.15;96495.41;6368020;22;20047;-59
2022/03/28 09:31:30;;;;;;;9.10;8.20;;;;;;;17.30;21.90;96497.56;6368828;22;20040;-60
2022/03/28 09:34:08;;;;;;;11.25;8.80;;;;;;;16.98;22.22;96496.47;6368870;22;20040;-60
2022/03/28 09:36:51;;;;;;;11.85;8.52;;;;;;;17.47;21.83;96490.41;6368631;22;20077;-60
2022/03/28 09:39:26;;;;;;;9.45;8.05;;;;;;;17.55;21.66;96491.38;6369068;22;20083;-60
2022/03/28 09:42:08;;;;;;;9.02;8.15;;;;;;;17.26;22.42;96493.56;6368703;22;20075;-59
2022/03/28 09:44:40;;;;;;;9.05;8.15;;;;;;;17.76;22.47;96483.72;6368584;22;20024;-60
2022/03/28 09:47:14;;;;;;;9.73;8.30;;;;;;;18.10;20.85;96478.41;6368460;22;20013;-60
2022/03/28 09:49:42;;;;;;;9.88;7.82;;;;;;;17.67;22.25;96478.56;6367844;22;20003;-59
2022/03/28 09:52:14;;;;;;;10.07;8.13;;;;;;;18.22;21.51;96470.88;6368468;22;20003;-59
2022/03/28 09:54:50;;;;;;;8.93;8.02;;;;;;;18.86;20.52;96469.94;6368727;22;20484;-60
2022/03/28 09:57:24;;;;;;;11.88;8.07;;;;;;;18.48;20.79;96473.28;6368545;22;20005;-59
2022/03/28 09:59:50;;;;;;;9.48;7.63;;;;;;;18.90;21.08;96468.56;6368533;22;19998;-59
2022/03/28 10:02:19;;;;;;;9.25;8.20;;;;;;;18.98;20.96;96473.03;6368556;22;20002;-59
2022/03/28 10:04:47;;;;;;;11.57;8.45;;;;;;;19.22;20.22;96471.25;6368413;22;20442;-59
2022/03/28 10:07:12;;;;;;;9.32;7.93;;;;;;;20.08;19.43;96457.69;6368305;22;20006;-59
2022/03/28 10:09:39;;;;;;;9.52;8.27;;;;;;;19.87;18.41;96453.03;6368205;22;20435;-60
2022/03/28 10:12:06;;;;;;;10.07;7.68;;;;;;;19.53;20.28;96446.31;6368374;22;20465;-59
2022/03/28 10:14:32;;;;;;;8.43;7.63;;;;;;;19.45;19.64;96450.72;6368156;22;19998;-59
2022/03/28 10:17:00;;;;;;;14.43;8.30;;;;;;;20.43;18.22;96436.56;6368410;22;20133;-59
2022/03/28 10:19:26;;;;;;;8.57;7.88;;;;;;;19.99;19.72;96432.88;6367987;22;20002;-59
2022/03/28 10:21:52;;;;;;;11.07;7.70;;;;;;;20.20;18.85;96430.50;6368133;22;20009;-59
2022/03/28 10:24:24;;;;;;;9.15;8.27;;;;;;;20.09;18.71;96423.78;6368366;22;20002;-58
2022/03/28 10:26:56;;;;;;;9.73;8.30;;;;;;;20.03;18.99;96420.84;6367665;22;20078;-59
2022/03/28 10:29:22;;;;;;;9.27;7.93;;;;;;;20.38;19.48;96422.94;6367687;22;20003;-60
2022/03/28 10:32:02;;;;;;;9.85;7.90;;;;;;;20.46;18.40;96422.81;6368171;22;20441;-60
2022/03/28 10:34:59;;;;;;;14.23;8.15;;;;;;;20.13;19.10;96409.88;6367413;22;20043;-59
2022/03/28 10:37:34;;;;;;;8.63;7.78;;;;;;;20.60;18.76;96406.94;6367529;22;20017;-59
2022/03/28 10:40:15;;;;;;;8.70;7.85;;;;;;;20.44;18.26;96400.78;6367547;22;19994;-58
2022/03/28 10:43:07;;;;;;;9.48;8.45;;;;;;;21.39;18.13;96401.78;6367774;22;20055;-59
2022/03/28 10:45:56;;;;;;;10.73;7.47;;;;;;;20.88;18.64;96391.00;6360881;22;20006;-59
2022/03/28 10:48:40;;;;;;;13.20;9.40;;;;;;;21.34;17.95;96391.66;6366895;22;20014;-59
2022/03/28 10:51:29;;;;;;;12.57;8.38;;;;;;;21.32;18.50;96391.00;6367708;22;20006;-58
2022/03/28 10:54:06;;;;;;;8.73;7.82;;;;;;;21.46;17.35;96381.25;6368047;22;20284;-58
2022/03/28 10:56:33;;;;;;;10.88;7.63;;;;;;;21.05;18.30;96382.75;6367406;22;20002;-59
2022/03/28 10:59:07;;;;;;;9.70;8.68;;;;;;;21.40;16.81;96380.16;6339919;22;20443;-58
2022/03/28 11:01:34;;;;;;;10.75;8.30;;;;;;;20.98;17.32;96376.50;6367903;22;20498;-57
2022/03/28 11:04:12;;;;;;;10.52;8.23;;;;;;;20.27;18.66;96373.44;6367522;22;20074;-55
2022/03/28 11:06:59;;;;;;;11.00;9.15;;;;;;;20.48;18.04;96369.16;6367507;22;19998;-56
2022/03/28 11:09:43;;;;;;;8.73;7.65;;;;;;;21.17;17.45;96365.16;6367124;22;20438;-56
2022/03/28 11:12:16;;;;;;;9.55;8.20;;;;;;;21.14;16.39;96362.88;6367298;22;20048;-55
2022/03/28 11:14:50;;;;;;;9.13;7.63;;;;;;;21.05;16.70;96353.28;6367717;22;20430;-56
2022/03/28 11:17:30;;;;;;;11.30;8.47;;;;;;;21.15;16.48;96348.47;6367914;22;20470;-56
2022/03/28 11:20:15;;;;;;;10.80;8.73;;;;;;;21.04;16.95;96338.25;6367893;22;20010;-57
2022/03/28 11:22:41;;;;;;;9.02;7.43;;;;;;;21.39;16.32;96338.34;6367719;22;20369;-55
2022/03/28 11:25:38;;;;;;;10.90;7.68;;;;;;;21.36;16.88;96329.88;6367116;22;20071;-58
2022/03/28 11:28:08;;;;;;;8.90;8.00;;;;;;;21.76;16.49;96335.53;6364617;22;20007;-53
2022/03/28 11:30:50;;;;;;;8.32;7.47;;;;;;;22.17;15.01;96318.63;6367370;22;20026;-50
2022/03/28 11:33:19;;;;;;;10.27;6.95;;;;;;;21.75;15.07;96328.50;6367424;22;20127;-51